createdAt,value
2018-10-16T00:00:20.145Z,16.02
2018-10-16T00:02:49.748Z,16.00
2018-10-16T00:05:19.054Z,15.98
2018-10-16T00:07:48.145Z,15.96
2018-10-16T00:10:17.520Z,15.91
2018-10-16T00:12:46.898Z,15.95
2018-10-16T00:15:16.473Z,15.95
2018-10-16T00:17:47.220Z,15.93
2018-10-16T00:20:16.829Z,15.93
2018-10-16T00:22:47.234Z,15.95
2018-10-16T00:25:16.338Z,15.95
2018-10-16T00:27:47.401Z,15.95
2018-10-16T00:30:16.795Z,15.95
2018-10-16T00:32:47.393Z,15.95
2018-10-16T00:35:16.894Z,15.95
2018-10-16T00:37:47.273Z,15.96
2018-10-16T00:40:16.590Z,15.96
2018-10-16T00:42:47.221Z,15.95
2018-10-16T00:45:16.803Z,15.96
2018-10-16T00:47:45.770Z,15.99
2018-10-16T00:50:14.768Z,16.05
2018-10-16T00:52:44.094Z,16.07
2018-10-16T00:55:13.406Z,16.07
2018-10-16T00:57:43.030Z,16.05
2018-10-16T01:00:11.786Z,16.01
2018-10-16T01:02:40.859Z,15.98
2018-10-16T01:05:09.352Z,16.01
2018-10-16T01:07:38.635Z,15.99
2018-10-16T01:10:07.528Z,15.99
2018-10-16T01:12:37.077Z,16.02
2018-10-16T01:15:06.049Z,16.03
2018-10-16T01:17:35.142Z,16.04
2018-10-16T01:20:03.892Z,16.03
2018-10-16T01:22:33.067Z,15.98
2018-10-16T01:25:02.135Z,15.94
2018-10-16T01:27:31.458Z,15.87
2018-10-16T01:30:01.074Z,15.87
2018-10-16T01:32:30.381Z,15.96
2018-10-16T01:35:00.003Z,16.00
2018-10-16T01:37:28.742Z,15.95
2018-10-16T01:39:58.370Z,15.97
2018-10-16T01:42:29.809Z,16.01
2018-10-16T01:45:01.799Z,16.00
2018-10-16T01:47:31.442Z,15.94
2018-10-16T01:50:00.478Z,15.88
2018-10-16T01:52:30.066Z,15.85
2018-10-16T01:55:00.602Z,15.80
2018-10-16T01:57:33.754Z,15.74
2018-10-16T02:03:18.245Z,15.73
2018-10-16T02:05:48.765Z,15.73
2018-10-16T02:08:18.390Z,15.75
2018-10-16T02:10:48.009Z,15.82
2018-10-16T02:13:16.981Z,15.90
2018-10-16T02:15:47.422Z,16.01
2018-10-16T02:18:16.723Z,16.11
2018-10-16T02:20:47.537Z,16.20
2018-10-16T02:23:17.161Z,16.25
2018-10-16T02:25:47.514Z,16.30
2018-10-16T02:28:16.777Z,16.30
2018-10-16T02:30:47.457Z,16.28
2018-10-16T02:33:16.449Z,16.26
2018-10-16T02:35:47.610Z,16.28
2018-10-16T02:38:17.201Z,16.24
2018-10-16T02:40:47.589Z,16.22
2018-10-16T02:43:17.166Z,16.20
2018-10-16T02:45:47.469Z,16.18
2018-10-16T02:48:16.774Z,16.15
2018-10-16T02:50:47.614Z,16.12
2018-10-16T02:53:17.217Z,16.11
2018-10-16T02:55:47.565Z,16.13
2018-10-16T02:58:17.171Z,16.12
2018-10-16T03:00:47.522Z,16.10
2018-10-16T03:03:16.841Z,16.09
2018-10-16T03:05:47.646Z,16.07
2018-10-16T03:08:17.472Z,16.05
2018-10-16T03:10:47.573Z,16.03
2018-10-16T03:13:17.217Z,16.03
2018-10-16T03:15:47.566Z,16.06
2018-10-16T03:18:16.891Z,16.10
2018-10-16T03:20:47.682Z,16.12
2018-10-16T03:23:17.290Z,16.11
2018-10-16T03:25:47.294Z,16.10
2018-10-16T03:28:16.597Z,16.08
2018-10-16T03:30:45.686Z,16.09
2018-10-16T03:33:15.346Z,16.14
2018-10-16T03:35:44.667Z,16.16
2018-10-16T03:38:14.313Z,16.12
2018-10-16T03:40:43.620Z,16.05
2018-10-16T03:43:13.286Z,15.97
2018-10-16T03:45:42.610Z,15.91
2018-10-16T03:48:11.913Z,15.84
2018-10-16T03:50:41.411Z,15.79
2018-10-16T03:53:11.040Z,15.79
2018-10-16T03:55:40.345Z,15.83
2018-10-16T03:58:08.816Z,15.87
2018-10-16T04:00:38.436Z,15.89
2018-10-16T04:03:07.767Z,15.95
2018-10-16T04:05:36.456Z,16.03
2018-10-16T04:08:05.778Z,16.13
2018-10-16T04:10:35.354Z,16.22
2018-10-16T04:13:04.389Z,16.28
2018-10-16T04:15:33.482Z,16.30
2018-10-16T04:18:02.776Z,16.31
2018-10-16T04:20:32.208Z,16.31
2018-10-16T04:23:01.716Z,16.28
2018-10-16T04:25:31.385Z,16.24
2018-10-16T04:28:00.354Z,16.24
2018-10-16T04:30:29.661Z,16.21
2018-10-16T04:32:59.035Z,16.23
2018-10-16T04:35:28.486Z,16.27
2018-10-16T04:37:57.842Z,16.27
2018-10-16T04:40:27.413Z,16.31
2018-10-16T04:42:57.010Z,16.39
2018-10-16T04:45:26.582Z,16.49
2018-10-16T04:47:55.902Z,16.58
2018-10-16T04:50:25.497Z,16.60
2018-10-16T04:52:54.785Z,16.62
2018-10-16T04:55:24.386Z,16.62
2018-10-16T04:57:53.693Z,16.59
2018-10-16T05:00:22.732Z,16.52
2018-10-16T05:02:52.081Z,16.46
2018-10-16T05:05:21.164Z,16.41
2018-10-16T05:07:51.014Z,16.35
2018-10-16T05:10:20.441Z,16.30
2018-10-16T05:12:49.727Z,16.26
2018-10-16T05:15:18.458Z,16.22
2018-10-16T05:17:47.965Z,16.20
2018-10-16T05:20:17.549Z,16.28
2018-10-16T05:22:47.862Z,16.36
2018-10-16T05:25:17.493Z,16.37
2018-10-16T05:27:47.652Z,16.43
2018-10-16T05:30:16.706Z,16.50
2018-10-16T05:32:46.006Z,16.57
2018-10-16T05:35:15.339Z,16.58
2018-10-16T05:37:44.626Z,16.59
2018-10-16T05:40:13.929Z,16.53
2018-10-16T05:42:43.214Z,16.43
2018-10-16T05:45:12.442Z,16.38
2018-10-16T05:47:41.512Z,16.33
2018-10-16T05:50:10.238Z,16.26
2018-10-16T05:52:39.857Z,16.24
2018-10-16T05:55:09.443Z,16.19
2018-10-16T05:57:38.782Z,16.11
2018-10-16T06:00:19.052Z,16.09
2018-10-16T06:02:48.850Z,16.12
2018-10-16T06:05:18.157Z,16.19
2018-10-16T06:07:48.029Z,16.27
2018-10-16T06:10:17.674Z,16.34
2018-10-16T06:12:47.923Z,16.32
2018-10-16T06:15:17.213Z,16.25
2018-10-16T06:17:47.872Z,16.22
2018-10-16T06:20:17.174Z,16.25
2018-10-16T06:22:47.688Z,16.34
2018-10-16T06:25:16.479Z,16.45
2018-10-16T06:27:45.807Z,16.58
2018-10-16T06:30:15.027Z,16.69
2018-10-16T06:32:51.180Z,16.71
2018-10-16T06:35:20.769Z,16.69
2018-10-16T06:37:50.065Z,16.66
2018-10-16T06:40:19.102Z,16.64
2018-10-16T06:42:48.410Z,16.65
2018-10-16T06:45:17.860Z,16.73
2018-10-16T06:47:48.170Z,16.74
2018-10-16T06:50:17.755Z,16.78
2018-10-16T06:52:48.102Z,16.88
2018-10-16T06:55:17.479Z,16.92
2018-10-16T06:57:48.119Z,16.90
2018-10-16T07:00:17.521Z,16.94
2018-10-16T07:02:47.833Z,17.02
2018-10-16T07:05:16.785Z,17.06
2018-10-16T07:07:46.107Z,17.10
2018-10-16T07:10:15.732Z,17.09
2018-10-16T07:12:44.688Z,17.13
2018-10-16T07:15:14.001Z,17.21
2018-10-16T07:17:43.281Z,17.31
2018-10-16T07:20:12.342Z,17.39
2018-10-16T07:22:41.825Z,17.44
2018-10-16T07:25:11.103Z,17.46
2018-10-16T07:27:40.150Z,17.50
2018-10-16T07:30:09.492Z,17.51
2018-10-16T07:32:38.933Z,17.51
2018-10-16T07:35:07.674Z,17.48
2018-10-16T07:37:36.749Z,17.45
2018-10-16T07:40:05.470Z,17.46
2018-10-16T07:42:34.949Z,17.48
2018-10-16T07:45:03.671Z,17.53
2018-10-16T07:47:33.108Z,17.57
2018-10-16T07:50:02.161Z,17.58
2018-10-16T07:52:31.843Z,17.58
2018-10-16T07:55:01.096Z,17.57
2018-10-16T07:57:30.822Z,17.61
2018-10-16T08:00:00.231Z,17.61
2018-10-16T08:02:30.584Z,17.63
2018-10-16T08:05:00.061Z,17.64
2018-10-16T08:07:29.841Z,17.63
2018-10-16T08:09:59.155Z,17.64
2018-10-16T08:12:28.714Z,17.65
2018-10-16T08:14:58.034Z,17.64
2018-10-16T08:17:27.318Z,17.66
2018-10-16T08:19:56.921Z,17.69
2018-10-16T08:22:26.213Z,17.70
2018-10-16T08:24:55.171Z,17.73
2018-10-16T08:27:28.403Z,17.76
2018-10-16T08:29:58.101Z,17.80
2018-10-16T08:32:27.559Z,17.83
2018-10-16T08:34:57.131Z,17.89
2018-10-16T08:37:25.919Z,17.97
2018-10-16T08:39:55.081Z,18.04
2018-10-16T08:42:24.035Z,18.12
2018-10-16T08:44:52.885Z,18.21
2018-10-16T08:53:11.141Z,18.42
2018-10-16T08:55:40.434Z,18.48
2018-10-16T08:58:10.023Z,18.57
2018-10-16T09:00:39.767Z,18.64
2018-10-16T09:03:08.709Z,18.73
2018-10-16T09:05:38.015Z,18.82
2018-10-16T09:08:07.597Z,18.91
2018-10-16T09:10:36.817Z,18.98
2018-10-16T09:13:06.101Z,19.09
2018-10-16T09:15:35.600Z,19.16
2018-10-16T09:18:04.869Z,19.26
2018-10-16T09:20:34.283Z,19.37
2018-10-16T09:23:03.570Z,19.48
2018-10-16T09:25:33.154Z,19.60
2018-10-16T09:28:02.473Z,19.68
2018-10-16T09:30:32.353Z,19.75
2018-10-16T09:33:01.637Z,19.83
2018-10-16T09:35:31.087Z,19.91
2018-10-16T09:38:00.544Z,20.04
2018-10-16T09:40:30.239Z,20.16
2018-10-16T09:42:59.336Z,20.28
2018-10-16T09:45:28.653Z,20.43
2018-10-16T09:47:58.189Z,20.60
2018-10-16T09:50:27.470Z,20.83
2018-10-16T09:52:56.799Z,21.03
2018-10-16T09:55:26.412Z,21.25
2018-10-16T09:57:55.733Z,21.46
2018-10-16T10:00:24.954Z,21.65
2018-10-16T10:02:54.415Z,21.84
2018-10-16T10:05:23.722Z,22.07
2018-10-16T10:07:53.258Z,22.21
2018-10-16T10:10:22.476Z,22.28
2018-10-16T10:12:53.871Z,22.35
2018-10-16T10:15:23.218Z,22.46
2018-10-16T10:17:52.177Z,22.56
2018-10-16T10:20:21.413Z,22.67
2018-10-16T10:22:51.540Z,22.84
2018-10-16T10:25:20.899Z,23.03
2018-10-16T10:27:50.569Z,23.25
2018-10-16T10:30:19.810Z,23.46
2018-10-16T10:32:49.666Z,23.62
2018-10-16T10:35:18.775Z,23.78
2018-10-16T10:37:48.386Z,23.92
2018-10-16T10:40:17.789Z,24.12
2018-10-16T10:42:48.510Z,24.38
2018-10-16T10:45:17.833Z,24.71
2018-10-16T10:47:48.111Z,25.04
2018-10-16T10:50:17.857Z,25.33
2018-10-16T10:52:48.698Z,25.48
2018-10-16T10:55:18.826Z,25.57
2018-10-16T10:57:48.708Z,25.64
2018-10-16T11:00:18.029Z,25.64
2018-10-16T11:02:48.452Z,25.61
2018-10-16T11:05:18.442Z,25.54
2018-10-16T11:07:48.629Z,25.46
2018-10-16T11:10:17.950Z,25.36
2018-10-16T11:12:48.779Z,25.16
2018-10-16T11:15:18.417Z,24.96
2018-10-16T11:17:48.853Z,24.87
2018-10-16T11:20:18.350Z,24.81
2018-10-16T11:22:48.762Z,24.77
2018-10-16T11:25:18.074Z,24.75
2018-10-16T11:27:48.769Z,24.77
2018-10-16T11:30:18.454Z,24.86
2018-10-16T11:32:48.701Z,24.91
2018-10-16T11:35:18.306Z,24.89
2018-10-16T11:37:48.738Z,24.81
2018-10-16T11:40:19.243Z,24.81
2018-10-16T11:42:51.160Z,24.86
2018-10-16T11:45:21.431Z,24.88
2018-10-16T11:47:50.718Z,24.93
2018-10-16T11:50:20.030Z,24.96
2018-10-16T11:52:49.374Z,24.98
2018-10-16T11:55:18.677Z,25.00
2018-10-16T11:57:48.940Z,25.09
2018-10-16T12:00:17.902Z,25.15
2018-10-16T12:02:48.843Z,25.10
2018-10-16T12:05:18.468Z,24.96
2018-10-16T12:07:48.834Z,24.89
2018-10-16T12:10:17.820Z,24.86
2018-10-16T12:12:48.457Z,24.82
2018-10-16T12:15:17.755Z,24.77
2018-10-16T12:17:47.072Z,24.78
2018-10-16T12:20:16.481Z,24.79
2018-10-16T12:22:45.776Z,24.64
2018-10-16T12:25:15.147Z,24.51
2018-10-16T12:27:44.614Z,24.42
2018-10-16T12:30:15.700Z,24.42
2018-10-16T12:35:36.535Z,24.54
2018-10-16T12:38:06.066Z,24.55
2018-10-16T12:40:35.662Z,24.52
2018-10-16T12:43:04.662Z,24.53
2018-10-16T12:45:34.134Z,24.60
2018-10-16T12:48:03.799Z,24.58
2018-10-16T12:50:32.980Z,24.54
2018-10-16T12:53:02.776Z,24.50
2018-10-16T12:55:32.246Z,24.46
2018-10-16T12:58:01.858Z,24.44
2018-10-16T13:00:31.158Z,24.41
2018-10-16T13:03:00.970Z,24.40
2018-10-16T13:05:30.721Z,24.38
2018-10-16T13:08:00.017Z,24.40
2018-10-16T13:10:29.530Z,24.38
2018-10-16T13:12:59.094Z,24.38
2018-10-16T13:15:28.706Z,24.33
2018-10-16T13:17:58.322Z,24.23
2018-10-16T13:20:27.786Z,24.14
2018-10-16T13:22:57.106Z,24.14
2018-10-16T13:25:26.482Z,24.16
2018-10-16T13:27:56.024Z,24.18
2018-10-16T13:30:25.398Z,24.26
2018-10-16T13:32:54.926Z,24.36
2018-10-16T13:35:24.933Z,24.46
2018-10-16T13:37:54.932Z,24.57
2018-10-16T13:40:24.366Z,24.66
2018-10-16T13:42:53.996Z,24.89
2018-10-16T13:45:23.697Z,25.30
2018-10-16T13:47:52.687Z,25.63
2018-10-16T13:50:21.979Z,25.94
2018-10-16T13:52:51.271Z,26.33
2018-10-16T13:55:20.594Z,26.78
2018-10-16T13:57:49.673Z,27.14
2018-10-16T14:00:18.958Z,27.42
2018-10-16T14:02:49.061Z,27.52
2018-10-16T14:05:18.477Z,27.64
2018-10-16T14:07:48.521Z,27.59
2018-10-16T14:10:17.493Z,27.52
2018-10-16T14:12:46.801Z,27.50
2018-10-16T14:15:15.792Z,27.65
2018-10-16T14:17:57.553Z,27.77
2018-10-16T14:20:30.417Z,27.85
2018-10-16T14:23:00.047Z,28.03
2018-10-16T14:25:29.354Z,28.07
2018-10-16T14:27:59.230Z,28.00
2018-10-16T14:30:28.947Z,27.93
2018-10-16T14:32:58.271Z,27.83
2018-10-16T14:35:27.786Z,27.60
2018-10-16T14:37:57.146Z,27.41
2018-10-16T14:40:26.924Z,27.27
2018-10-16T14:42:56.267Z,27.07
2018-10-16T14:45:25.901Z,26.82
2018-10-16T14:47:55.087Z,26.68
2018-10-16T14:50:24.834Z,26.53
2018-10-16T14:52:54.423Z,26.48
2018-10-16T14:55:23.974Z,26.39
2018-10-16T14:57:53.287Z,26.37
2018-10-16T15:00:22.854Z,26.32
2018-10-16T15:02:52.194Z,26.14
2018-10-16T15:05:21.794Z,25.96
2018-10-16T15:07:51.173Z,25.82
2018-10-16T15:10:20.504Z,25.72
2018-10-16T15:12:50.188Z,25.66
2018-10-16T15:15:19.990Z,25.58
2018-10-16T15:17:49.346Z,25.57
2018-10-16T15:20:18.579Z,25.66
2018-10-16T15:22:49.531Z,25.83
2018-10-16T15:25:19.066Z,25.92
2018-10-16T15:27:49.401Z,25.98
2018-10-16T15:30:19.015Z,25.96
2018-10-16T15:32:49.305Z,25.93
2018-10-16T15:35:18.622Z,25.87
2018-10-16T15:37:49.353Z,25.85
2018-10-16T15:40:18.586Z,25.82
2018-10-16T15:42:49.410Z,25.72
2018-10-16T15:45:18.398Z,25.59
2018-10-16T15:47:49.066Z,25.50
2018-10-16T15:50:18.054Z,25.42
2018-10-16T15:52:47.566Z,25.32
2018-10-16T15:55:17.414Z,25.27
2018-10-16T15:57:47.058Z,25.22
2018-10-16T16:00:16.289Z,25.15
2018-10-16T16:02:46.066Z,25.05
2018-10-16T16:05:15.027Z,24.95
2018-10-16T16:07:44.319Z,24.84
2018-10-16T16:10:13.695Z,24.72
2018-10-16T16:12:46.664Z,24.54
2018-10-16T16:15:16.141Z,24.40
2018-10-16T16:17:45.455Z,24.23
2018-10-16T16:20:14.837Z,24.10
2018-10-16T16:22:43.665Z,23.95
2018-10-16T16:25:13.179Z,23.78
2018-10-16T16:27:42.754Z,23.63
2018-10-16T16:30:11.929Z,23.53
2018-10-16T16:32:41.118Z,23.45
2018-10-16T16:35:10.876Z,23.41
2018-10-16T16:37:40.258Z,23.34
2018-10-16T16:40:09.376Z,23.34
2018-10-16T16:42:38.737Z,23.31
2018-10-16T16:45:08.273Z,23.28
2018-10-16T16:47:37.562Z,23.24
2018-10-16T16:50:06.948Z,23.18
2018-10-16T16:52:36.020Z,23.13
2018-10-16T16:55:04.986Z,23.05
2018-10-16T16:57:34.309Z,22.96
2018-10-16T17:00:03.868Z,22.85
2018-10-16T17:02:33.236Z,22.77
2018-10-16T17:05:03.094Z,22.66
2018-10-16T17:07:32.426Z,22.62
2018-10-16T17:10:01.845Z,22.57
2018-10-16T17:12:31.288Z,22.53
2018-10-16T17:15:00.744Z,22.49
2018-10-16T17:17:29.682Z,22.45
2018-10-16T17:19:59.339Z,22.41
2018-10-16T17:22:29.085Z,22.34
2018-10-16T17:24:58.450Z,22.27
2018-10-16T17:27:28.186Z,22.20
2018-10-16T17:29:57.902Z,22.15
2018-10-16T17:32:27.287Z,22.10
2018-10-16T17:34:56.893Z,22.05
2018-10-16T17:37:26.432Z,22.00
2018-10-16T17:39:55.498Z,21.93
2018-10-16T17:42:24.790Z,21.88
2018-10-16T17:44:54.314Z,21.81
2018-10-16T17:47:23.807Z,21.74
2018-10-16T17:49:53.630Z,21.62
2018-10-16T17:52:23.815Z,21.50
2018-10-16T17:54:53.176Z,21.42
2018-10-16T17:57:22.291Z,21.38
2018-10-16T17:59:51.750Z,21.32
2018-10-16T18:02:21.346Z,21.28
2018-10-16T18:04:50.930Z,21.25
2018-10-16T18:07:19.895Z,21.22
2018-10-16T18:09:49.832Z,21.19
2018-10-16T18:12:19.470Z,21.17
2018-10-16T18:14:49.434Z,21.20
2018-10-16T18:17:18.732Z,21.26
2018-10-16T18:19:48.018Z,21.32
2018-10-16T18:22:17.290Z,21.35
2018-10-16T18:24:46.622Z,21.35
2018-10-16T18:27:16.130Z,21.33
2018-10-16T18:29:45.623Z,21.29
2018-10-16T18:32:15.411Z,21.23
2018-10-16T18:34:44.718Z,21.18
2018-10-16T18:37:13.778Z,21.11
2018-10-16T18:39:43.165Z,21.04
2018-10-16T18:42:12.586Z,21.00
2018-10-16T18:44:41.870Z,20.95
2018-10-16T18:47:11.172Z,20.93
2018-10-16T18:49:40.669Z,20.89
2018-10-16T18:52:09.954Z,20.84
2018-10-16T18:54:52.205Z,20.78
2018-10-16T18:57:23.234Z,20.77
2018-10-16T18:59:52.886Z,20.76
2018-10-16T19:02:22.315Z,20.70
2018-10-16T19:04:51.971Z,20.61
2018-10-16T19:07:21.559Z,20.52
2018-10-16T19:09:50.895Z,20.39
2018-10-16T19:12:20.194Z,20.26
2018-10-16T19:14:49.938Z,20.17
2018-10-16T19:17:19.503Z,20.09
2018-10-16T19:19:50.167Z,20.03
2018-10-16T19:22:19.667Z,19.99
2018-10-16T19:24:49.701Z,19.95
2018-10-16T19:27:19.478Z,19.91
2018-10-16T19:29:50.078Z,19.86
2018-10-16T19:32:19.554Z,19.81
2018-10-16T19:34:49.895Z,19.80
2018-10-16T19:37:19.225Z,19.83
2018-10-16T19:39:49.990Z,19.84
2018-10-16T19:42:19.637Z,19.88
2018-10-16T19:44:49.895Z,19.86
2018-10-16T19:47:19.196Z,19.83
2018-10-16T19:49:49.906Z,19.78
2018-10-16T19:52:19.203Z,19.75
2018-10-16T19:54:50.110Z,19.74
2018-10-16T19:57:19.246Z,19.71
2018-10-16T19:59:49.512Z,19.70
2018-10-16T20:02:18.966Z,19.69
2018-10-16T20:04:49.315Z,19.64
2018-10-16T20:07:18.446Z,19.57
2018-10-16T20:09:47.920Z,19.53
2018-10-16T20:12:17.207Z,19.50
2018-10-16T20:14:46.521Z,19.50
2018-10-16T20:17:15.827Z,19.48
2018-10-16T20:19:45.174Z,19.47
2018-10-16T20:22:14.766Z,19.46
2018-10-16T20:24:44.215Z,19.48
2018-10-16T20:27:13.343Z,19.48
2018-10-16T20:29:54.826Z,19.48
2018-10-16T20:32:36.551Z,19.45
2018-10-16T20:35:06.850Z,19.40
2018-10-16T20:37:36.143Z,19.33
2018-10-16T20:40:05.433Z,19.27
2018-10-16T20:42:34.961Z,19.22
2018-10-16T20:45:03.796Z,19.11
2018-10-16T20:47:33.136Z,18.99
2018-10-16T20:50:02.895Z,18.89
2018-10-16T20:52:32.187Z,18.86
2018-10-16T20:55:01.839Z,18.85
2018-10-16T20:57:31.013Z,18.83
2018-10-16T21:00:00.791Z,18.79
2018-10-16T21:02:30.102Z,18.79
2018-10-16T21:05:00.098Z,18.78
2018-10-16T21:07:29.045Z,18.79
2018-10-16T21:09:58.766Z,18.78
2018-10-16T21:12:28.063Z,18.77
2018-10-16T21:14:57.896Z,18.76
2018-10-16T21:17:27.358Z,18.77
2018-10-16T21:19:56.991Z,18.80
2018-10-16T21:22:25.957Z,18.82
2018-10-16T21:24:55.589Z,18.81
2018-10-16T21:27:25.109Z,18.78
2018-10-16T21:29:54.829Z,18.78
2018-10-16T21:32:24.133Z,18.78
2018-10-16T21:34:53.467Z,18.78
2018-10-16T21:37:22.616Z,18.80
2018-10-16T21:39:52.193Z,18.79
2018-10-16T21:42:21.493Z,18.79
2018-10-16T21:44:51.090Z,18.80
2018-10-16T21:47:21.839Z,18.78
2018-10-16T21:49:51.477Z,18.76
2018-10-16T21:52:20.889Z,18.75
2018-10-16T21:54:50.289Z,18.71
2018-10-16T21:57:19.910Z,18.66
2018-10-16T21:59:50.114Z,18.63
2018-10-16T22:02:19.186Z,18.62
2018-10-16T22:04:48.138Z,18.58
2018-10-16T22:07:17.529Z,18.54
2018-10-16T22:09:47.053Z,18.52
2018-10-16T22:12:15.550Z,18.51
2018-10-16T22:14:44.802Z,18.48
2018-10-16T22:17:14.159Z,18.46
2018-10-16T22:19:43.885Z,18.47
2018-10-16T22:22:13.863Z,18.46
2018-10-16T22:24:43.149Z,18.46
2018-10-16T22:27:12.448Z,18.42
2018-10-16T22:29:42.131Z,18.40
2018-10-16T22:32:11.546Z,18.36
2018-10-16T22:34:40.846Z,18.32
2018-10-16T22:37:10.278Z,18.25
2018-10-16T22:39:39.321Z,18.16
2018-10-16T22:42:08.650Z,18.08
2018-10-16T22:44:38.089Z,18.00
2018-10-16T22:47:07.143Z,17.94
2018-10-16T22:49:48.550Z,17.89
2018-10-16T22:52:30.529Z,17.84
2018-10-16T22:55:10.069Z,17.75
2018-10-16T22:57:39.512Z,17.68
2018-10-16T23:00:08.526Z,17.63
2018-10-16T23:02:38.151Z,17.58
2018-10-16T23:05:07.200Z,17.50
2018-10-16T23:07:36.346Z,17.39
2018-10-16T23:10:05.645Z,17.32
2018-10-16T23:12:35.274Z,17.27
2018-10-16T23:15:04.014Z,17.26
2018-10-16T23:17:33.307Z,17.22
2018-10-16T23:20:02.344Z,17.20
2018-10-16T23:22:31.929Z,17.18
2018-10-16T23:25:01.522Z,17.16
2018-10-16T23:27:31.290Z,17.13
2018-10-16T23:30:00.579Z,17.08
2018-10-16T23:32:30.134Z,17.09
2018-10-16T23:34:59.749Z,17.06
2018-10-16T23:37:29.191Z,16.98
2018-10-16T23:39:58.526Z,16.91
2018-10-16T23:42:27.847Z,16.83
2018-10-16T23:44:57.438Z,16.78
2018-10-16T23:47:27.189Z,16.72
2018-10-16T23:49:56.506Z,16.60
2018-10-16T23:52:25.452Z,16.41
2018-10-16T23:54:54.808Z,16.30
2018-10-16T23:57:24.499Z,16.28
2018-10-16T23:59:54.394Z,16.26
